Time;durP1;ratioP1;P1;durP2;ratioP2;P2;SDS_P1;SDS_P2;PMS_P1;PMS_P2;Temp;Humidity;BMP_temperature;BMP_pressure;BME280_temperature;BME280_humidity;BME280_pressure;Samples;Min_cycle;Max_cycle;Signal;HPM_P1;HPM_P2
2022/10/25 00:04:01;;;;;;;7.53;2.10;;;;;;;13.41;63.44;99731.50;10344014;28;20068;-65
2022/10/25 00:09:03;;;;;;;11.40;2.17;;;;;;;13.41;63.50;99735.94;10345217;28;20552;-65
2022/10/25 00:14:06;;;;;;;7.60;1.60;;;;;;;13.38;63.91;99741.41;10346583;28;20050;-65
2022/10/25 00:19:10;;;;;;;9.82;1.92;;;;;;;13.35;64.07;99725.88;10344747;28;20707;-65
2022/10/25 00:24:13;;;;;;;5.60;1.52;;;;;;;13.30;63.94;99733.25;10345891;28;20093;-66
2022/10/25 00:29:16;;;;;;;8.63;1.60;;;;;;;13.20;64.28;99732.25;10342898;28;20053;-66
2022/10/25 00:34:18;;;;;;;9.80;1.85;;;;;;;13.21;64.14;99732.16;10345773;28;20737;-66
2022/10/25 00:39:20;;;;;;;9.32;1.98;;;;;;;13.18;64.39;99731.53;10342574;28;20085;-65
2022/10/25 00:44:49;;;;;;;14.23;2.00;;;;;;;13.11;64.44;99736.41;10344584;28;20540;-66
2022/10/25 00:49:56;;;;;;;10.38;1.80;;;;;;;13.14;64.32;99732.72;10344644;28;20214;-66
2022/10/25 00:54:59;;;;;;;7.60;1.50;;;;;;;13.09;64.54;99737.47;10343297;28;20104;-66
2022/10/25 01:00:04;;;;;;;8.88;1.65;;;;;;;13.03;64.68;99744.00;10342959;28;20049;-65
2022/10/25 01:05:08;;;;;;;11.75;2.08;;;;;;;12.94;64.74;99757.81;10343161;28;20518;-65
2022/10/25 01:10:11;;;;;;;9.98;1.80;;;;;;;12.90;64.89;99754.53;10343252;28;20392;-65
2022/10/25 01:15:13;;;;;;;7.45;1.90;;;;;;;12.93;64.88;99749.09;10342646;28;20076;-66
2022/10/25 01:20:44;;;;;;;5.40;1.60;;;;;;;12.84;64.90;99764.66;10343058;28;20121;-66
2022/10/25 01:26:23;;;;;;;13.55;2.10;;;;;;;12.82;65.16;99754.25;10342393;28;20851;-66
2022/10/25 01:31:49;;;;;;;8.80;1.98;;;;;;;12.87;65.08;99760.03;10342629;28;20108;-66
2022/10/25 01:37:12;;;;;;;8.65;1.75;;;;;;;12.98;65.18;99758.41;10342288;28;20054;-66
2022/10/25 01:42:34;;;;;;;9.10;1.70;;;;;;;12.98;64.89;99753.16;10342495;28;20050;-65
2022/10/25 01:47:43;;;;;;;;;;;;;;;12.75;65.59;99755.66;10344561;28;20078;-66
2022/10/25 01:52:45;;;;;;;7.57;1.60;;;;;;;13.02;64.74;99762.50;10340966;28;20000;-66
2022/10/25 01:58:05;;;;;;;9.57;1.83;;;;;;;13.00;64.64;99764.38;10342262;28;20049;-66
2022/10/25 02:03:30;;;;;;;9.85;1.65;;;;;;;12.95;64.91;99772.59;10346342;28;20541;-65
2022/10/25 02:08:39;;;;;;;10.38;1.90;;;;;;;12.96;64.82;99769.84;10349559;28;20132;-65
2022/10/25 02:14:03;;;;;;;12.10;1.97;;;;;;;12.87;64.87;99775.78;10350395;28;20092;-66
2022/10/25 02:19:07;;;;;;;8.80;2.53;;;;;;;12.89;65.09;99779.13;10350658;28;20050;-66
2022/10/25 02:24:22;;;;;;;9.50;1.70;;;;;;;12.79;65.26;99772.00;10349874;28;20461;-66
2022/10/25 02:29:30;;;;;;;7.97;1.65;;;;;;;12.83;65.36;99763.81;10355797;28;20278;-65
2022/10/25 02:34:33;;;;;;;10.05;1.92;;;;;;;12.87;64.97;99767.91;10357035;28;20062;-66
2022/10/25 02:39:35;;;;;;;8.13;2.30;;;;;;;12.76;65.45;99770.44;10356796;28;20112;-66
2022/10/25 02:44:37;;;;;;;12.63;2.10;;;;;;;12.77;65.27;99774.75;10354973;28;20049;-66
2022/10/25 02:49:39;;;;;;;8.35;1.85;;;;;;;12.79;65.22;99782.50;10357423;28;20054;-66
2022/10/25 02:54:44;;;;;;;12.07;2.42;;;;;;;12.75;65.38;99784.53;10353668;28;20049;-66
2022/10/25 02:59:45;;;;;;;8.32;1.88;;;;;;;12.79;65.37;99795.63;10356813;28;20577;-66
2022/10/25 03:04:47;;;;;;;27.13;12.55;;;;;;;12.79;65.48;99783.34;10351208;28;20058;-66
2022/10/25 03:09:49;;;;;;;11.32;2.53;;;;;;;12.83;65.44;99783.97;10350415;28;20449;-66
2022/10/25 03:14:51;;;;;;;8.05;1.85;;;;;;;12.81;65.41;99786.72;10348417;28;20065;-66
2022/10/25 03:19:53;;;;;;;7.15;1.80;;;;;;;12.86;65.42;99792.44;10349015;28;20069;-66
2022/10/25 03:24:54;;;;;;;11.98;2.15;;;;;;;12.88;65.62;99785.31;10347887;28;20610;-66
2022/10/25 03:29:56;;;;;;;11.88;2.83;;;;;;;12.89;65.52;99786.16;10349641;28;20077;-66
2022/10/25 03:34:58;;;;;;;11.48;2.00;;;;;;;12.84;65.64;99783.84;10347175;28;20049;-66
2022/10/25 03:40:00;;;;;;;11.30;2.47;;;;;;;12.88;65.30;99785.31;10348099;28;20054;-66
2022/10/25 03:45:02;;;;;;;9.23;2.05;;;;;;;12.84;65.39;99796.16;10346744;28;20050;-66
2022/10/25 03:50:05;;;;;;;8.80;1.80;;;;;;;12.82;65.46;99800.69;10347290;28;20498;-67
2022/10/25 03:55:11;;;;;;;11.27;2.47;;;;;;;12.79;65.61;99796.47;10349600;28;20428;-65
2022/10/25 04:00:14;;;;;;;7.97;1.80;;;;;;;12.76;65.73;99807.19;10345980;28;20144;-65
2022/10/25 04:05:16;;;;;;;5.93;1.50;;;;;;;12.75;65.54;99816.00;10347411;28;20386;-65
2022/10/25 04:10:18;;;;;;;9.15;1.92;;;;;;;12.72;65.59;99813.59;10347259;28;20061;-65
2022/10/25 04:15:20;;;;;;;9.13;2.17;;;;;;;12.70;65.84;99815.47;10346433;28;20061;-65
2022/10/25 04:20:22;;;;;;;7.38;2.40;;;;;;;12.67;65.68;99814.88;10347160;28;20521;-66
2022/10/25 04:25:26;;;;;;;9.00;2.03;;;;;;;12.67;65.85;99812.25;10346203;28;20518;-67
2022/10/25 04:30:28;;;;;;;8.38;1.83;;;;;;;12.64;65.57;99810.66;10346811;28;20316;-66
2022/10/25 04:35:29;;;;;;;9.48;1.77;;;;;;;12.66;65.68;99814.03;10345175;28;20145;-65
2022/10/25 04:40:31;;;;;;;8.45;1.90;;;;;;;12.69;65.44;99811.19;10346231;28;20046;-66
2022/10/25 04:45:33;;;;;;;10.18;2.00;;;;;;;12.71;65.39;99805.84;10346477;28;20076;-66
2022/10/25 04:50:36;;;;;;;8.43;1.98;;;;;;;12.66;65.71;99807.97;10345711;28;20187;-67
2022/10/25 04:55:38;;;;;;;11.60;2.10;;;;;;;12.59;65.78;99802.28;10346074;28;20678;-64
2022/10/25 05:00:40;;;;;;;10.98;2.00;;;;;;;12.50;66.11;99820.44;10345915;28;20096;-65
2022/10/25 05:05:42;;;;;;;10.15;1.83;;;;;;;12.46;66.20;99811.94;10344505;28;20061;-65
2022/10/25 05:10:44;;;;;;;11.05;1.95;;;;;;;12.49;66.08;99818.78;10344140;28;20077;-67
2022/10/25 05:15:55;;;;;;;14.15;1.60;;;;;;;12.38;66.29;99826.53;10344014;28;20407;-65
2022/10/25 05:21:00;;;;;;;10.73;2.10;;;;;;;12.40;66.40;99829.88;10346317;28;20050;-65
2022/10/25 05:26:14;;;;;;;11.07;1.98;;;;;;;12.33;66.61;99839.97;10343295;28;20050;-65
2022/10/25 05:31:26;;;;;;;9.27;1.85;;;;;;;12.31;66.79;99854.13;10344828;28;20050;-67
2022/10/25 05:36:28;;;;;;;11.27;1.90;;;;;;;12.30;66.69;99858.53;10342169;28;20054;-66
2022/10/25 05:41:30;;;;;;;9.07;2.10;;;;;;;12.33;66.62;99858.34;10344667;28;20049;-66
2022/10/25 05:46:37;;;;;;;7.22;1.73;;;;;;;12.34;66.73;99865.25;10344150;28;20046;-66
2022/10/25 05:51:39;;;;;;;8.30;1.70;;;;;;;12.39;66.64;99878.06;10344806;28;20457;-65
2022/10/25 05:56:41;;;;;;;9.75;1.90;;;;;;;12.54;66.37;99893.56;10343838;28;20045;-66
2022/10/25 06:01:45;;;;;;;8.32;2.00;;;;;;;12.70;66.23;99894.19;10344763;28;20094;-66
2022/10/25 06:06:50;;;;;;;7.95;1.77;;;;;;;12.75;66.03;99892.13;10351863;28;20046;-66
2022/10/25 06:11:52;;;;;;;9.00;1.83;;;;;;;12.82;65.87;99898.59;10351815;28;20050;-66
2022/10/25 06:16:54;;;;;;;11.57;2.15;;;;;;;12.85;65.73;99898.41;10351685;28;20046;-66
2022/10/25 06:21:56;;;;;;;11.20;2.30;;;;;;;12.89;65.85;99909.50;10351276;28;20077;-66
2022/10/25 06:26:57;;;;;;;10.80;2.10;;;;;;;13.00;65.93;99921.91;10351038;28;20081;-66
2022/10/25 06:31:59;;;;;;;10.60;2.40;;;;;;;13.14;65.25;99929.66;10350858;28;20104;-66
2022/10/25 06:37:02;;;;;;;9.05;3.13;;;;;;;13.22;65.37;99932.56;10351627;28;21100;-66
2022/10/25 06:42:04;;;;;;;11.95;3.15;;;;;;;13.33;65.19;99937.91;10348757;28;20525;-66
2022/10/25 06:47:06;;;;;;;12.18;1.98;;;;;;;13.38;64.91;99949.78;10350568;28;20093;-66
2022/10/25 06:52:23;;;;;;;9.70;2.00;;;;;;;13.50;65.09;99954.19;10350465;28;20042;-66
2022/10/25 06:57:25;;;;;;;7.00;1.70;;;;;;;13.43;64.97;99957.38;10351116;28;20104;-65
2022/10/25 07:02:26;;;;;;;12.20;2.50;;;;;;;13.28;65.10;99958.41;10349853;28;20116;-66
2022/10/25 07:07:29;;;;;;;11.82;3.38;;;;;;;13.24;65.23;99963.03;10350273;28;20502;-65
2022/10/25 07:12:36;;;;;;;13.02;3.78;;;;;;;13.25;65.02;99958.63;10348486;28;20402;-66
2022/10/25 07:17:38;;;;;;;7.47;2.20;;;;;;;13.34;64.75;99964.06;10347978;28;20045;-66
2022/10/25 07:22:40;;;;;;;7.68;2.30;;;;;;;13.41;64.96;99969.75;10349063;28;20060;-66
2022/10/25 07:27:42;;;;;;;9.20;1.73;;;;;;;13.65;64.04;99965.41;10347718;28;20046;-66
2022/10/25 07:32:44;;;;;;;7.13;1.95;;;;;;;13.98;63.66;99970.84;10348763;28;20510;-66
2022/10/25 07:37:46;;;;;;;7.05;1.90;;;;;;;14.15;62.98;99970.44;10342570;28;20473;-66
2022/10/25 07:42:48;;;;;;;6.10;1.77;;;;;;;14.19;62.14;99971.88;10348752;28;20065;-74
2022/10/25 07:47:51;;;;;;;7.00;1.77;;;;;;;14.31;62.18;99978.00;10345707;28;20042;-72
2022/10/25 07:52:54;;;;;;;7.10;1.80;;;;;;;14.50;61.54;99978.38;10347350;28;20076;-73
2022/10/25 07:58:04;;;;;;;7.47;1.58;;;;;;;14.69;60.50;99981.31;10345846;28;20050;-73
2022/10/25 08:03:06;;;;;;;7.55;1.60;;;;;;;15.00;60.10;99988.50;10345951;28;20097;-72
2022/10/25 08:08:07;;;;;;;10.07;2.10;;;;;;;15.18;59.66;99987.13;10345766;28;20061;-73
2022/10/25 08:13:10;;;;;;;11.82;1.50;;;;;;;15.41;58.84;100001.09;10344288;28;20053;-74
2022/10/25 08:18:12;;;;;;;6.00;1.58;;;;;;;15.58;58.50;99990.13;10346707;28;20045;-74
2022/10/25 08:23:14;;;;;;;7.13;1.60;;;;;;;15.71;58.14;99984.72;10341818;28;20062;-74
2022/10/25 08:28:16;;;;;;;12.30;1.70;;;;;;;15.76;57.66;99980.72;10345931;28;20045;-75
2022/10/25 08:33:18;;;;;;;6.47;1.67;;;;;;;15.90;57.49;99987.53;10343857;28;20159;-74
2022/10/25 08:38:20;;;;;;;7.45;1.63;;;;;;;16.02;56.91;99995.28;10345493;28;20141;-74
2022/10/25 08:43:43;;;;;;;8.55;1.90;;;;;;;16.27;55.81;99990.63;10343103;28;20442;-74
2022/10/25 08:49:01;;;;;;;7.80;2.03;;;;;;;16.09;55.90;99990.34;10345224;28;20738;-75
2022/10/25 08:54:15;;;;;;;9.13;2.03;;;;;;;15.93;56.55;99993.41;10344926;28;20343;-73
2022/10/25 08:59:25;;;;;;;6.28;1.70;;;;;;;15.89;56.91;99994.63;10345448;28;20049;-76
2022/10/25 09:04:29;;;;;;;8.45;1.45;;;;;;;15.89;56.99;100002.53;10325996;28;20054;-74
2022/10/25 09:09:59;;;;;;;6.47;2.00;;;;;;;16.04;55.87;100003.91;10346471;28;20107;-75
2022/10/25 09:15:14;;;;;;;6.13;1.50;;;;;;;16.29;55.77;100015.09;10342383;28;20461;-75
2022/10/25 09:20:30;;;;;;;6.13;1.90;;;;;;;16.23;55.44;100013.81;10344774;28;20062;-75
2022/10/25 09:26:04;;;;;;;7.95;1.80;;;;;;;15.85;55.86;100031.91;10341662;28;20103;-75
2022/10/25 09:31:12;;;;;;;7.18;1.58;;;;;;;15.68;56.67;100025.34;10344414;28;20133;-75
2022/10/25 09:36:14;;;;;;;7.32;1.55;;;;;;;15.51;57.20;100022.38;10340566;28;20065;-74
2022/10/25 09:41:22;;;;;;;4.82;1.40;;;;;;;15.34;57.27;100035.03;10342411;28;20397;-74
2022/10/25 09:46:33;;;;;;;5.72;1.45;;;;;;;15.28;57.40;100037.28;10343068;28;20336;-75
2022/10/25 09:52:16;;;;;;;6.18;1.48;;;;;;;15.22;57.19;100038.63;10343146;28;20108;-75
2022/10/25 09:57:18;;;;;;;7.18;1.60;;;;;;;15.30;57.12;100043.28;10343187;28;20057;-75
2022/10/25 10:02:25;;;;;;;5.05;1.40;;;;;;;15.29;56.85;100047.72;10342607;28;20453;-75
2022/10/25 10:07:36;;;;;;;6.88;1.52;;;;;;;15.17;57.07;100050.44;10341155;28;20054;-74
2022/10/25 10:12:48;;;;;;;4.38;1.40;;;;;;;15.21;56.89;100063.28;10343881;28;20050;-74
2022/10/25 10:18:18;;;;;;;4.88;1.40;;;;;;;15.55;56.00;100069.44;10339903;28;20045;-75
2022/10/25 10:23:22;;;;;;;5.45;1.38;;;;;;;15.93;55.53;100069.06;10342064;28;20085;-75
2022/10/25 10:28:24;;;;;;;5.55;1.30;;;;;;;16.30;54.48;100066.94;10344109;28;20053;-75
2022/10/25 10:33:30;;;;;;;5.35;1.20;;;;;;;16.62;53.16;100066.03;10343669;28;20695;-74
2022/10/25 10:38:32;;;;;;;6.97;1.48;;;;;;;16.91;52.71;100063.59;10342198;28;20050;-75
2022/10/25 10:43:34;;;;;;;5.30;1.50;;;;;;;17.08;52.07;100065.66;10342224;28;20329;-75
2022/10/25 10:48:42;;;;;;;3.72;1.15;;;;;;;17.30;51.02;100062.03;10346195;28;20053;-74
2022/10/25 10:53:44;;;;;;;4.80;1.17;;;;;;;17.31;51.15;100059.25;10349699;28;20045;-74
2022/10/25 10:58:49;;;;;;;5.40;1.15;;;;;;;17.29;50.80;100058.56;10346667;28;20049;-74
2022/10/25 11:03:58;;;;;;;2.97;1.10;;;;;;;17.21;50.12;100066.28;10348419;28;20061;-75
2022/10/25 11:09:16;;;;;;;5.15;1.30;;;;;;;17.21;49.74;100066.28;10348537;28;20125;-74
2022/10/25 11:14:20;;;;;;;3.13;1.15;;;;;;;17.51;49.91;100065.50;10347869;28;20562;-74
2022/10/25 11:19:37;;;;;;;6.15;1.17;;;;;;;17.52;49.63;100064.53;10349227;28;20809;-74
2022/10/25 11:25:13;;;;;;;5.00;1.35;;;;;;;17.50;48.67;100062.03;10347824;28;20063;-75
2022/10/25 11:30:18;;;;;;;6.90;1.50;;;;;;;17.65;49.27;100068.63;10347057;28;20058;-75
2022/10/25 11:36:01;;;;;;;6.75;1.48;;;;;;;17.50;48.72;100075.25;10348047;28;20049;-76
2022/10/25 11:41:17;;;;;;;4.03;1.20;;;;;;;17.64;48.59;100074.91;10347038;28;20085;-75
2022/10/25 11:46:29;;;;;;;6.43;1.65;;;;;;;17.73;48.64;100066.16;10344788;28;20089;-74
2022/10/25 11:51:53;;;;;;;5.93;1.30;;;;;;;17.62;48.06;100057.47;10345696;28;20609;-73
2022/10/25 11:57:07;;;;;;;3.47;1.15;;;;;;;17.65;48.72;100059.84;10342957;28;20211;-74
2022/10/25 12:02:30;;;;;;;6.18;1.40;;;;;;;17.63;48.53;100046.75;10344438;28;20054;-73
2022/10/25 12:07:40;;;;;;;8.95;1.30;;;;;;;17.71;48.84;100061.97;10345023;28;20128;-73
2022/10/25 12:12:58;;;;;;;6.90;1.30;;;;;;;17.87;48.24;100054.38;10344533;28;20045;-73
2022/10/25 12:18:01;;;;;;;4.63;1.40;;;;;;;17.96;48.21;100048.25;10346574;28;20053;-73
2022/10/25 12:23:09;;;;;;;6.18;1.40;;;;;;;17.95;48.26;100054.53;10345627;28;20082;-74
2022/10/25 12:28:44;;;;;;;8.40;1.48;;;;;;;18.05;47.89;100049.25;10345685;28;20525;-73
2022/10/25 12:34:00;;;;;;;4.30;1.25;;;;;;;17.80;47.88;100048.78;10344021;28;20383;-73
2022/10/25 12:39:11;;;;;;;5.72;1.27;;;;;;;17.71;48.20;100043.44;10342998;28;20053;-73
2022/10/25 12:44:47;;;;;;;10.35;1.95;;;;;;;17.88;48.05;100042.81;10343372;28;20053;-73
2022/10/25 12:50:21;;;;;;;7.07;1.40;;;;;;;17.60;48.11;100041.75;10359354;28;20774;-73
2022/10/25 12:55:58;;;;;;;7.18;1.60;;;;;;;17.63;47.97;100027.41;10344078;28;20053;-73
2022/10/25 13:01:12;;;;;;;2.83;1.13;;;;;;;17.72;48.40;100037.19;10342069;28;20046;-73
2022/10/25 13:06:32;;;;;;;5.25;1.50;;;;;;;17.66;47.37;100028.00;10342863;28;20144;-73
2022/10/25 13:11:40;;;;;;;8.38;1.38;;;;;;;17.75;48.49;100019.25;10341221;28;20046;-73
2022/10/25 13:16:42;;;;;;;6.60;1.58;;;;;;;17.85;47.88;100014.81;10332938;28;20050;-73
2022/10/25 13:21:52;;;;;;;7.55;1.85;;;;;;;18.04;46.65;100014.00;10343501;28;20054;-73
2022/10/25 13:27:17;;;;;;;6.15;1.30;;;;;;;18.13;46.27;100015.00;10343367;28;20061;-73
2022/10/25 13:32:19;;;;;;;6.57;1.40;;;;;;;17.94;46.97;100017.59;10340309;28;20054;-73
2022/10/25 13:37:30;;;;;;;3.67;1.17;;;;;;;17.82;46.98;100028.31;10339621;28;20135;-73
2022/10/25 13:42:34;;;;;;;5.65;1.10;;;;;;;17.89;46.57;100025.13;10342312;28;20116;-73
2022/10/25 13:47:38;;;;;;;3.65;1.20;;;;;;;17.96;46.38;100026.25;10343123;28;20054;-73
2022/10/25 13:53:03;;;;;;;4.03;1.30;;;;;;;17.90;45.68;100026.78;10340417;28;20042;-74
2022/10/25 13:58:27;;;;;;;6.80;1.40;;;;;;;18.11;46.01;100016.97;10341530;28;20049;-74
2022/10/25 14:03:54;;;;;;;5.55;1.40;;;;;;;18.36;45.83;100009.34;10340814;28;20057;-74
2022/10/25 14:09:11;;;;;;;3.00;1.17;;;;;;;17.93;44.52;100005.38;10338616;28;20046;-74
2022/10/25 14:14:28;;;;;;;5.95;1.40;;;;;;;17.75;45.69;100007.84;10332892;28;20077;-74
2022/10/25 14:19:44;;;;;;;3.50;1.30;;;;;;;17.81;45.85;99991.44;10341941;28;20075;-74
2022/10/25 14:24:51;;;;;;;3.88;1.10;;;;;;;17.87;46.09;99990.03;10345367;28;20057;-74
2022/10/25 14:30:10;;;;;;;3.22;1.13;;;;;;;17.76;46.07;99986.53;10349098;28;20050;-74
2022/10/25 14:35:12;;;;;;;3.40;1.10;;;;;;;17.70;45.83;99988.88;10349987;28;20100;-74
2022/10/25 14:40:18;;;;;;;5.85;1.33;;;;;;;17.55;46.19;99996.34;10347963;28;20124;-74
2022/10/25 14:45:23;;;;;;;5.78;1.30;;;;;;;17.51;46.48;99999.38;10348676;28;20061;-74
2022/10/25 14:50:26;;;;;;;9.95;1.70;;;;;;;17.56;47.73;100002.47;10346525;28;20065;-73
2022/10/25 14:55:31;;;;;;;4.80;1.50;;;;;;;17.50;46.77;99987.16;10345192;28;20157;-73
2022/10/25 15:00:33;;;;;;;5.22;1.30;;;;;;;17.34;48.07;99995.59;10346996;28;20068;-72
2022/10/25 15:05:39;;;;;;;5.47;1.27;;;;;;;17.02;48.35;99997.47;10344833;28;20136;-73
2022/10/25 15:10:44;;;;;;;5.05;1.35;;;;;;;16.81;49.50;99996.66;10346241;28;20104;-73
2022/10/25 15:15:48;;;;;;;6.30;1.80;;;;;;;16.51;49.52;99991.31;10346802;28;20307;-73
2022/10/25 15:21:04;;;;;;;4.25;1.20;;;;;;;16.32;50.85;100001.66;10344321;28;20524;-72
2022/10/25 15:26:26;;;;;;;4.95;1.45;;;;;;;16.28;51.54;99990.53;10362803;28;20467;-72
2022/10/25 15:31:30;;;;;;;8.30;1.90;;;;;;;16.26;52.28;99996.91;10347731;28;20053;-72
2022/10/25 15:36:33;;;;;;;6.13;1.38;;;;;;;16.21;52.44;99992.84;10345982;28;20057;-72
2022/10/25 15:41:35;;;;;;;6.40;1.55;;;;;;;16.26;53.05;99996.91;10348790;28;20525;-73
2022/10/25 15:46:37;;;;;;;6.47;1.55;;;;;;;16.19;53.41;99986.00;10345193;28;20062;-72
2022/10/25 15:51:41;;;;;;;7.57;1.30;;;;;;;16.03;53.06;99981.16;10345585;28;20518;-72
2022/10/25 15:56:44;;;;;;;5.53;1.65;;;;;;;15.85;53.98;99973.88;10346115;28;20046;-73
2022/10/25 16:01:50;;;;;;;2.80;1.17;;;;;;;15.58;54.14;99984.84;10343918;28;20073;-73
2022/10/25 16:06:52;;;;;;;6.63;1.60;;;;;;;15.33;54.66;99985.06;10340006;28;20054;-73
2022/10/25 16:11:56;;;;;;;4.05;1.35;;;;;;;15.07;55.35;99988.88;10339771;28;20053;-73
2022/10/25 16:16:58;;;;;;;5.40;1.60;;;;;;;14.86;56.05;99990.56;10342979;28;20049;-73
2022/10/25 16:22:00;;;;;;;6.47;1.50;;;;;;;14.70;56.27;99995.28;10344248;28;20129;-72
2022/10/25 16:27:02;;;;;;;6.05;1.73;;;;;;;14.55;56.91;99992.84;10343017;28;20050;-72
2022/10/25 16:32:04;;;;;;;10.30;1.65;;;;;;;14.39;57.12;100005.44;10344558;28;20046;-73
2022/10/25 16:37:07;;;;;;;5.63;1.67;;;;;;;14.27;57.24;100010.75;10335642;28;20054;-73
2022/10/25 16:42:36;;;;;;;7.30;2.13;;;;;;;14.15;58.14;100002.00;10342784;28;20045;-73
2022/10/25 16:47:38;;;;;;;5.80;2.03;;;;;;;14.10;58.41;100006.78;10342204;28;20050;-73
2022/10/25 16:52:40;;;;;;;9.40;2.05;;;;;;;14.02;58.62;100009.13;10342984;28;20058;-74
2022/10/25 16:57:42;;;;;;;10.90;2.63;;;;;;;13.88;59.17;100003.16;10342056;28;20065;-74
2022/10/25 17:02:45;;;;;;;8.77;1.90;;;;;;;13.74;59.54;99998.88;10339222;28;20050;-74
2022/10/25 17:07:47;;;;;;;11.45;2.40;;;;;;;13.57;60.16;100008.00;10341043;28;20054;-74
2022/10/25 17:13:00;;;;;;;8.98;1.70;;;;;;;13.43;60.43;100008.09;10339728;28;20060;-75
2022/10/25 17:18:02;;;;;;;5.57;1.73;;;;;;;13.33;60.79;100003.59;10338521;28;20075;-66
2022/10/25 17:23:03;;;;;;;7.63;1.83;;;;;;;13.19;61.20;99995.84;10339759;28;20095;-66
2022/10/25 17:28:06;;;;;;;8.93;2.47;;;;;;;13.10;61.81;100004.34;10341690;28;20052;-66
2022/10/25 17:33:08;;;;;;;7.50;2.10;;;;;;;13.02;62.26;99997.00;10340069;28;20077;-66
2022/10/25 17:38:10;;;;;;;10.70;2.60;;;;;;;12.97;62.40;99988.56;10337913;28;20050;-66
2022/10/25 17:43:14;;;;;;;9.07;2.30;;;;;;;12.90;62.42;99993.41;10336944;28;20116;-66
2022/10/25 17:48:16;;;;;;;6.97;2.50;;;;;;;12.67;62.60;99983.63;10338329;28;20431;-66
2022/10/25 17:53:17;;;;;;;13.05;2.72;;;;;;;12.49;63.65;99984.03;10338990;28;20454;-67
2022/10/25 17:58:19;;;;;;;8.70;2.20;;;;;;;12.39;63.86;99975.94;10342155;28;20046;-65
2022/10/25 18:03:21;;;;;;;7.90;2.33;;;;;;;12.32;64.02;99979.91;10348758;28;20054;-65
2022/10/25 18:08:23;;;;;;;8.00;2.10;;;;;;;12.19;64.23;99992.13;10349220;28;20140;-65
2022/10/25 18:13:27;;;;;;;8.20;2.00;;;;;;;12.14;64.09;99994.19;10343619;28;20501;-65
2022/10/25 18:18:30;;;;;;;6.93;2.10;;;;;;;12.00;64.78;99991.63;10345051;28;20108;-65
2022/10/25 18:23:32;;;;;;;7.95;2.40;;;;;;;11.98;64.89;99983.88;10348834;28;20053;-65
2022/10/25 18:28:34;;;;;;;12.20;3.00;;;;;;;11.93;64.77;99983.31;10346980;28;20057;-65
2022/10/25 18:33:38;;;;;;;9.13;3.30;;;;;;;11.82;65.21;99977.94;10344451;28;20050;-65
2022/10/25 18:38:41;;;;;;;9.57;3.50;;;;;;;11.77;65.23;99982.59;10342873;28;20046;-65
2022/10/25 18:43:43;;;;;;;10.50;4.03;;;;;;;11.61;65.46;99983.66;10347202;28;20069;-65
2022/10/25 18:48:50;;;;;;;10.32;3.38;;;;;;;11.51;65.39;99990.44;10342622;28;20100;-66
2022/10/25 18:53:57;;;;;;;16.42;3.25;;;;;;;11.40;65.95;99995.50;10340584;28;20463;-67
2022/10/25 18:58:59;;;;;;;12.85;2.58;;;;;;;11.41;65.95;99987.56;10343118;28;21171;-67
2022/10/25 19:04:02;;;;;;;13.20;3.00;;;;;;;11.35;65.97;99990.56;10321919;28;20506;-67
2022/10/25 19:09:04;;;;;;;10.60;3.40;;;;;;;11.32;66.05;99991.56;10345494;28;20083;-66
2022/10/25 19:14:06;;;;;;;12.38;2.70;;;;;;;11.25;66.07;99997.28;10345554;28;20046;-67
2022/10/25 19:19:10;;;;;;;13.07;2.92;;;;;;;11.27;66.16;99990.19;10361750;28;20108;-66
2022/10/25 19:24:15;;;;;;;6.05;2.60;;;;;;;11.25;66.38;99982.41;10333075;28;20057;-67
2022/10/25 19:29:17;;;;;;;11.32;2.80;;;;;;;11.24;66.05;99985.13;10339494;28;20146;-66
2022/10/25 19:34:19;;;;;;;10.90;4.07;;;;;;;11.18;65.96;99983.72;10339420;28;20061;-66
2022/10/25 19:39:22;;;;;;;12.50;3.90;;;;;;;11.10;65.93;99980.75;10341213;28;20060;-66
2022/10/25 19:44:24;;;;;;;8.82;2.65;;;;;;;11.05;66.23;99980.16;10342521;28;20068;-66
2022/10/25 19:49:26;;;;;;;6.72;2.80;;;;;;;11.05;66.29;99984.59;10341338;28;20049;-66
2022/10/25 19:54:28;;;;;;;10.27;3.22;;;;;;;10.98;66.38;99984.06;10340280;28;20050;-66
2022/10/25 19:59:29;;;;;;;8.80;2.70;;;;;;;10.94;66.30;99979.97;10345598;28;20053;-66
2022/10/25 20:04:31;;;;;;;17.65;3.80;;;;;;;10.89;66.13;99983.78;10342044;28;20050;-66
2022/10/25 20:09:33;;;;;;;15.93;3.25;;;;;;;10.66;66.49;99990.41;10345975;28;20584;-66
2022/10/25 20:14:36;;;;;;;8.25;2.88;;;;;;;10.64;66.80;99987.03;10339627;28;20505;-66
2022/10/25 20:19:38;;;;;;;11.77;2.88;;;;;;;10.58;66.60;99979.53;10343873;28;20210;-66
2022/10/25 20:24:40;;;;;;;10.70;3.00;;;;;;;10.52;66.56;99980.72;10343232;28;20123;-66
2022/10/25 20:29:42;;;;;;;13.25;2.65;;;;;;;10.48;66.86;99986.25;10355763;28;20050;-66
2022/10/25 20:34:44;;;;;;;9.52;2.95;;;;;;;10.41;67.02;99982.28;10343937;28;20050;-65
2022/10/25 20:39:46;;;;;;;11.65;3.08;;;;;;;10.39;67.19;99987.63;10341774;28;20050;-66
2022/10/25 20:44:49;;;;;;;13.43;3.33;;;;;;;10.44;67.20;99988.19;10343035;28;20068;-66
2022/10/25 20:49:53;;;;;;;9.60;2.90;;;;;;;10.30;66.98;99987.28;10340626;28;20046;-67
2022/10/25 20:54:54;;;;;;;12.23;3.40;;;;;;;10.29;67.10;99985.63;10342498;28;20068;-65
2022/10/25 21:00:05;;;;;;;19.23;4.07;;;;;;;10.31;66.88;99988.97;10340422;28;20128;-66
2022/10/25 21:05:07;;;;;;;14.20;4.07;;;;;;;10.32;67.04;99988.03;10340194;28;20061;-66
2022/10/25 21:10:10;;;;;;;11.10;3.25;;;;;;;10.34;67.12;99975.72;10344973;28;20129;-66
2022/10/25 21:15:12;;;;;;;14.13;3.50;;;;;;;10.35;67.04;99983.50;10340413;28;20505;-66
2022/10/25 21:20:14;;;;;;;8.65;3.10;;;;;;;10.39;66.87;99984.16;10338883;28;20298;-66
2022/10/25 21:25:16;;;;;;;12.15;2.63;;;;;;;10.36;67.10;99973.84;10335504;28;20541;-66
2022/10/25 21:30:17;;;;;;;17.13;2.90;;;;;;;10.36;66.96;99974.72;10339919;28;20050;-66
2022/10/25 21:35:19;;;;;;;10.13;2.97;;;;;;;10.37;66.88;99965.09;10340022;28;20327;-65
2022/10/25 21:40:21;;;;;;;12.82;3.20;;;;;;;10.42;66.91;99963.03;10336038;28;20058;-66
2022/10/25 21:45:24;;;;;;;13.55;3.80;;;;;;;10.47;66.73;99963.63;10331696;28;20174;-66
2022/10/25 21:50:27;;;;;;;8.95;3.70;;;;;;;10.38;66.56;99962.38;10339555;28;20045;-66
2022/10/25 21:55:29;;;;;;;12.80;4.13;;;;;;;10.40;66.58;99959.69;10335139;28;20049;-65
2022/10/25 22:00:30;;;;;;;14.63;3.63;;;;;;;10.36;66.64;99952.94;10335983;28;20060;-66
2022/10/25 22:05:33;;;;;;;23.05;8.60;;;;;;;10.27;66.58;99948.28;10337210;28;20203;-66
2022/10/25 22:10:35;;;;;;;13.40;7.18;;;;;;;10.37;66.89;99944.19;10327487;28;20109;-66
2022/10/25 22:15:36;;;;;;;16.63;7.28;;;;;;;10.45;66.75;99942.81;10332072;28;20140;-66
2022/10/25 22:20:38;;;;;;;12.95;4.93;;;;;;;10.49;66.58;99940.84;10334379;28;20078;-65
2022/10/25 22:25:40;;;;;;;11.68;4.50;;;;;;;10.46;66.52;99935.81;10339550;28;20145;-65
2022/10/25 22:30:42;;;;;;;10.75;4.80;;;;;;;10.44;66.32;99942.88;10335934;28;20080;-65
2022/10/25 22:35:44;;;;;;;11.00;4.40;;;;;;;10.45;66.37;99937.59;10338629;28;20046;-65
2022/10/25 22:40:57;;;;;;;15.98;4.72;;;;;;;10.41;66.76;99938.69;10339178;28;20115;-66
2022/10/25 22:46:00;;;;;;;14.27;4.47;;;;;;;10.50;66.30;99934.69;10343431;28;20170;-66
2022/10/25 22:51:02;;;;;;;14.93;4.35;;;;;;;10.48;66.34;99934.78;10345555;28;20124;-66
2022/10/25 22:56:07;;;;;;;11.75;3.65;;;;;;;10.40;66.17;99933.53;10344578;28;20513;-66
2022/10/25 23:01:14;;;;;;;12.38;5.25;;;;;;;10.33;66.43;99937.47;10342366;28;20129;-66
2022/10/25 23:06:18;;;;;;;15.02;5.18;;;;;;;10.36;66.38;99937.25;10344081;28;20057;-66
2022/10/25 23:11:26;;;;;;;15.60;5.22;;;;;;;10.31;66.61;99939.31;10342820;28;20046;-66
2022/10/25 23:16:28;;;;;;;9.90;4.03;;;;;;;10.21;66.93;99939.03;10344491;28;20053;-66
2022/10/25 23:21:30;;;;;;;15.32;4.43;;;;;;;10.29;66.86;99938.56;10341743;28;20580;-67
2022/10/25 23:26:35;;;;;;;18.13;4.40;;;;;;;10.39;66.79;99937.09;10344915;28;20050;-66
2022/10/25 23:31:37;;;;;;;15.23;8.45;;;;;;;10.41;66.65;99943.94;10328937;28;20045;-66
2022/10/25 23:36:39;;;;;;;15.75;7.65;;;;;;;10.40;66.57;99939.59;10343184;28;20093;-66